Papere Vagabonde

Aviosuperficie Caposile LIKI

Pista 04


Pista 22

Le immagini vengono aggiornate ogni minuto
Cliccare sull'immagine per l'ingrandimento.

METAR LIPZ

LIPZ 281750Z 06008KT 030V150 9999 VCTS FEW010CB SCT025 21/20 Q1012 RETSRA RETSGR NOSIG

TAF LIPZ 281700Z 2818/2924 VRB05KT 9999 SCT020
  TEMPO 2818/2821 22015KT 4000 TSRA
  BECMG 2910/2912 17010KT
  BECMG 2918/2920 VRB05KT


      

Alba: 05:49
Tramonto: 20:43

LOW LEVEL SIGWX CHART

ALL WEATHER DATA